Time;durP1;ratioP1;P1;durP2;ratioP2;P2;SDS_P1;SDS_P2;PMS_P1;PMS_P2;Temp;Humidity;BMP_temperature;BMP_pressure;BME280_temperature;BME280_humidity;BME280_pressure;Samples;Min_cycle;Max_cycle;Signal;HPM_P1;HPM_P2
2023/03/29 00:02:32;;;;;;;;;;;21.50;90.30;;;;;;5054763;28;19916;-79
2023/03/29 00:05:03;;;;;;;;;;;21.50;90.00;;;;;;5038162;28;19963;-80
2023/03/29 00:07:32;;;;;;;;;;;21.50;89.60;;;;;;5054663;28;19908;-79
2023/03/29 00:10:00;;;;;;;;;;;21.50;89.80;;;;;;5054739;28;19916;-80
2023/03/29 00:12:27;;;;;;;;;;;21.60;89.40;;;;;;5054899;28;20263;-80
2023/03/29 00:14:53;;;;;;;;;;;21.70;89.60;;;;;;5054710;28;19909;-79
2023/03/29 00:17:20;;;;;;;;;;;21.70;89.40;;;;;;5054639;28;19917;-80
2023/03/29 00:19:47;;;;;;;;;;;21.70;89.20;;;;;;5036507;28;19913;-80
2023/03/29 00:22:13;;;;;;;;;;;21.70;89.10;;;;;;5054457;28;19924;-79
2023/03/29 00:24:40;;;;;;;;;;;21.80;89.20;;;;;;5036635;28;20002;-80
2023/03/29 00:27:07;;;;;;;;;;;21.80;89.00;;;;;;5054418;28;20007;-80
2023/03/29 00:29:34;;;;;;;;;;;21.80;89.00;;;;;;5054530;28;19915;-80
2023/03/29 00:32:01;;;;;;;;;;;21.80;88.70;;;;;;5053937;28;19912;-80
2023/03/29 00:34:30;;;;;;;;;;;21.80;88.60;;;;;;5054395;28;20271;-81
2023/03/29 00:36:57;;;;;;;;;;;21.80;88.40;;;;;;5036828;28;20360;-80
2023/03/29 00:39:25;;;;;;;;;;;21.80;88.20;;;;;;5054045;28;19913;-81
2023/03/29 00:41:52;;;;;;;;;;;21.80;88.20;;;;;;5054215;28;20322;-81
2023/03/29 00:44:36;;;;;;;;;;;21.90;88.10;;;;;;5054018;28;19908;-80
2023/03/29 00:47:03;;;;;;;;;;;21.90;88.20;;;;;;5053819;28;19908;-80
2023/03/29 00:49:30;;;;;;;;;;;21.90;88.40;;;;;;5053794;28;19917;-81
2023/03/29 00:51:56;;;;;;;;;;;22.00;88.40;;;;;;5054254;28;20298;-81
2023/03/29 00:54:23;;;;;;;;;;;22.00;88.20;;;;;;5035963;28;20460;-80
2023/03/29 00:56:50;;;;;;;;;;;22.00;87.90;;;;;;5053577;28;19981;-81
2023/03/29 00:59:20;;;;;;;;;;;22.10;87.90;;;;;;5054290;28;19951;-80
2023/03/29 01:01:53;;;;;;;;;;;22.10;87.30;;;;;;5019349;28;19913;-81
2023/03/29 01:04:46;;;;;;;;;;;22.10;86.90;;;;;;5053886;28;19909;-81
2023/03/29 01:07:17;;;;;;;;;;;22.20;85.70;;;;;;5050107;28;19913;-81
2023/03/29 01:09:45;;;;;;;;;;;22.20;86.30;;;;;;5035517;28;19909;-81
2023/03/29 01:12:15;;;;;;;;;;;22.30;86.20;;;;;;5035828;28;19913;-81
2023/03/29 01:14:45;;;;;;;;;;;22.30;86.20;;;;;;5035826;28;19909;-82
2023/03/29 01:17:13;;;;;;;;;;;22.30;86.00;;;;;;5035738;28;19917;-82
2023/03/29 01:19:42;;;;;;;;;;;22.40;85.60;;;;;;5053165;28;19913;-83
2023/03/29 01:22:12;;;;;;;;;;;22.50;85.50;;;;;;5019303;28;20331;-82
2023/03/29 01:24:43;;;;;;;;;;;22.50;85.40;;;;;;5053129;28;19909;-82
2023/03/29 01:27:35;;;;;;;;;;;22.60;85.20;;;;;;5035394;28;19913;-82
2023/03/29 01:30:03;;;;;;;;;;;22.60;85.40;;;;;;5049329;28;19916;-83
2023/03/29 01:32:33;;;;;;;;;;;22.70;85.30;;;;;;5035334;28;19909;-83
2023/03/29 01:35:09;;;;;;;;;;;22.80;85.10;;;;;;5052957;28;19913;-82
2023/03/29 01:37:37;;;;;;;;;;;22.80;85.30;;;;;;5052487;28;19917;-82
2023/03/29 01:40:05;;;;;;;;;;;22.90;85.20;;;;;;5053219;28;19909;-82
2023/03/29 01:42:51;;;;;;;;;;;23.10;85.30;;;;;;5035201;28;19916;-82
2023/03/29 01:45:18;;;;;;;;;;;23.20;84.90;;;;;;5039193;28;19996;-83
2023/03/29 01:47:45;;;;;;;;;;;23.30;84.70;;;;;;5052680;28;20283;-82
2023/03/29 01:50:19;;;;;;;;;;;23.40;83.80;;;;;;5052971;28;19948;-84
2023/03/29 01:52:50;;;;;;;;;;;23.50;81.70;;;;;;5035346;28;19951;-85
2023/03/29 01:55:22;;;;;;;;;;;23.60;80.50;;;;;;5035147;28;19915;-85
2023/03/29 01:57:48;;;;;;;;;;;23.70;80.80;;;;;;5035176;28;19920;-84
2023/03/29 02:00:16;;;;;;;;;;;23.80;80.10;;;;;;5035037;28;19908;-85
2023/03/29 02:02:44;;;;;;;;;;;23.90;79.70;;;;;;5052870;28;19955;-85
2023/03/29 02:05:11;;;;;;;;;;;24.00;79.90;;;;;;5035188;28;20424;-84
2023/03/29 02:07:39;;;;;;;;;;;23.90;79.80;;;;;;5052650;28;20347;-85
2023/03/29 02:10:06;;;;;;;;;;;23.90;79.60;;;;;;5052451;28;19916;-84
2023/03/29 02:12:33;;;;;;;;;;;23.80;79.40;;;;;;5034820;28;20318;-84
2023/03/29 02:15:00;;;;;;;;;;;23.80;78.90;;;;;;5052386;28;19908;-84
2023/03/29 02:17:26;;;;;;;;;;;23.70;78.80;;;;;;5052201;28;19960;-85
2023/03/29 02:20:13;;;;;;;;;;;23.70;78.50;;;;;;5052454;28;19916;-85
2023/03/29 02:22:45;;;;;;;;;;;23.60;78.80;;;;;;5035175;28;20011;-84
2023/03/29 02:25:12;;;;;;;;;;;23.50;78.70;;;;;;5034862;28;19931;-84
2023/03/29 02:27:39;;;;;;;;;;;23.50;78.80;;;;;;5035019;28;19909;-85
2023/03/29 02:30:07;;;;;;;;;;;23.40;79.00;;;;;;5052526;28;20009;-85
2023/03/29 02:32:34;;;;;;;;;;;23.40;79.70;;;;;;5034442;28;19913;-85
2023/03/29 02:35:05;;;;;;;;;;;23.50;79.90;;;;;;5034557;28;19908;-85
2023/03/29 02:37:33;;;;;;;;;;;23.40;80.80;;;;;;5034989;28;19924;-84
2023/03/29 02:39:59;;;;;;;;;;;23.40;81.10;;;;;;5052270;28;19909;-85
2023/03/29 02:42:26;;;;;;;;;;;23.30;81.80;;;;;;5034748;28;19927;-85
2023/03/29 02:44:55;;;;;;;;;;;23.30;83.50;;;;;;5034276;28;19908;-85
2023/03/29 02:47:22;;;;;;;;;;;23.30;82.40;;;;;;5034217;28;20271;-85
2023/03/29 02:49:49;;;;;;;;;;;23.30;82.70;;;;;;5037914;28;19985;-87
2023/03/29 02:52:17;;;;;;;;;;;23.30;82.80;;;;;;5056401;28;19913;-81
2023/03/29 02:54:44;;;;;;;;;;;23.40;82.20;;;;;;5038225;28;19908;-86
2023/03/29 02:57:12;;;;;;;;;;;23.40;82.20;;;;;;5038232;28;19917;-87
2023/03/29 02:59:39;;;;;;;;;;;23.50;81.90;;;;;;5056151;28;19912;-86
2023/03/29 03:02:06;;;;;;;;;;;23.50;81.50;;;;;;5055845;28;19920;-84
2023/03/29 03:04:34;;;;;;;;;;;23.50;81.20;;;;;;5055975;28;19963;-86
2023/03/29 03:07:01;;;;;;;;;;;23.50;81.30;;;;;;5055847;28;19970;-86
2023/03/29 03:09:28;;;;;;;;;;;23.60;81.60;;;;;;5038389;28;20333;-87
2023/03/29 03:11:55;;;;;;;;;;;23.60;81.40;;;;;;5055737;28;19920;-87
2023/03/29 03:14:21;;;;;;;;;;;23.70;81.90;;;;;;5055878;28;20374;-85
2023/03/29 03:16:48;;;;;;;;;;;23.80;81.50;;;;;;5055392;28;19917;-82
2023/03/29 03:19:15;;;;;;;;;;;23.80;81.70;;;;;;5055893;28;20382;-85
2023/03/29 03:21:42;;;;;;;;;;;23.90;81.60;;;;;;5056183;28;19943;-85
2023/03/29 03:24:09;;;;;;;;;;;24.00;81.80;;;;;;5055610;28;19965;-83
2023/03/29 03:26:37;;;;;;;;;;;24.00;80.60;;;;;;5056101;28;20362;-86
2023/03/29 03:29:04;;;;;;;;;;;23.90;80.70;;;;;;5055318;28;19916;-86
2023/03/29 03:31:32;;;;;;;;;;;24.00;81.50;;;;;;5037787;28;19963;-83
2023/03/29 03:33:59;;;;;;;;;;;23.90;82.10;;;;;;5055392;28;19908;-85
2023/03/29 03:36:27;;;;;;;;;;;23.80;82.30;;;;;;5055004;28;19921;-85
2023/03/29 03:38:54;;;;;;;;;;;23.70;83.00;;;;;;5055205;28;20358;-85
2023/03/29 03:41:21;;;;;;;;;;;23.70;83.40;;;;;;5055485;28;19908;-86
2023/03/29 03:43:48;;;;;;;;;;;23.70;82.00;;;;;;5054819;28;19983;-86
2023/03/29 03:46:15;;;;;;;;;;;23.60;82.20;;;;;;5056491;28;20397;-87
2023/03/29 03:48:43;;;;;;;;;;;23.60;81.70;;;;;;5055660;28;19932;-87
2023/03/29 03:51:09;;;;;;;;;;;23.50;81.40;;;;;;5037933;28;20023;-89
2023/03/29 03:53:36;;;;;;;;;;;23.50;80.90;;;;;;5055413;28;19920;-86
2023/03/29 03:56:07;;;;;;;;;;;23.50;80.60;;;;;;5055025;28;19958;-86
2023/03/29 03:58:35;;;;;;;;;;;23.60;80.40;;;;;;5054955;28;19944;-88
2023/03/29 04:01:01;;;;;;;;;;;23.60;80.50;;;;;;5054369;28;20329;-86
2023/03/29 04:03:28;;;;;;;;;;;23.60;80.10;;;;;;5054990;28;19916;-87
2023/03/29 04:05:58;;;;;;;;;;;23.70;80.20;;;;;;5054643;28;19982;-86
2023/03/29 04:08:25;;;;;;;;;;;23.80;81.00;;;;;;5036961;28;20440;-85
2023/03/29 04:10:52;;;;;;;;;;;23.80;80.00;;;;;;5054822;28;19913;-87
2023/03/29 04:13:18;;;;;;;;;;;23.80;77.80;;;;;;5054749;28;19909;-86
2023/03/29 04:15:48;;;;;;;;;;;23.80;76.70;;;;;;5054695;28;20008;-83
2023/03/29 04:18:18;;;;;;;;;;;23.80;74.00;;;;;;5054744;28;20374;-88
2023/03/29 04:20:46;;;;;;;;;;;23.80;74.50;;;;;;5054759;28;19995;-83
2023/03/29 04:23:12;;;;;;;;;;;23.90;75.00;;;;;;5054534;28;20267;-86
2023/03/29 04:25:39;;;;;;;;;;;23.90;73.00;;;;;;5054251;28;19909;-86
2023/03/29 04:28:06;;;;;;;;;;;24.00;73.00;;;;;;5054547;28;19913;-86
2023/03/29 04:30:33;;;;;;;;;;;24.00;72.90;;;;;;5054616;28;20373;-83
2023/03/29 04:33:00;;;;;;;;;;;24.00;72.30;;;;;;5074439;28;19948;-82
2023/03/29 04:35:26;;;;;;;;;;;24.10;71.30;;;;;;5074043;28;19919;-86
2023/03/29 04:37:56;;;;;;;;;;;24.10;71.80;;;;;;5074299;28;19912;-86
2023/03/29 04:40:22;;;;;;;;;;;24.10;71.10;;;;;;5074194;28;19915;-86
2023/03/29 04:42:50;;;;;;;;;;;24.10;70.70;;;;;;5074254;28;20281;-87
2023/03/29 04:45:17;;;;;;;;;;;24.10;70.00;;;;;;5073643;28;19995;-85
2023/03/29 04:47:44;;;;;;;;;;;24.10;70.30;;;;;;5073911;28;19939;-86
2023/03/29 04:50:11;;;;;;;;;;;24.10;69.50;;;;;;5073751;28;19919;-81
2023/03/29 04:52:38;;;;;;;;;;;24.10;70.10;;;;;;5073724;28;19961;-82
2023/03/29 04:55:05;;;;;;;;;;;24.20;69.40;;;;;;5056097;28;19916;-86
2023/03/29 04:57:33;;;;;;;;;;;24.20;69.50;;;;;;5073779;28;20290;-85
2023/03/29 04:59:59;;;;;;;;;;;24.10;69.30;;;;;;5073545;28;19952;-85
2023/03/29 05:02:26;;;;;;;;;;;24.20;69.40;;;;;;5073303;28;19912;-85
2023/03/29 05:04:53;;;;;;;;;;;24.20;69.50;;;;;;5073712;28;19909;-86
2023/03/29 05:07:20;;;;;;;;;;;24.20;69.70;;;;;;5073911;28;19955;-85
2023/03/29 05:09:47;;;;;;;;;;;24.20;69.80;;;;;;5073703;28;19912;-85
2023/03/29 05:12:14;;;;;;;;;;;24.20;69.80;;;;;;5072608;28;19913;-84
2023/03/29 05:14:40;;;;;;;;;;;24.20;69.70;;;;;;5073162;28;20366;-82
2023/03/29 05:17:07;;;;;;;;;;;24.20;69.10;;;;;;5073313;28;19923;-85
2023/03/29 05:19:35;;;;;;;;;;;24.20;68.80;;;;;;5055832;28;19997;-85
2023/03/29 05:22:02;;;;;;;;;;;24.30;68.40;;;;;;5056535;28;20008;-87
2023/03/29 05:24:28;;;;;;;;;;;24.30;67.80;;;;;;5071607;28;19915;-87
2023/03/29 05:26:55;;;;;;;;;;;24.30;67.60;;;;;;5055258;28;20321;-85
2023/03/29 05:29:22;;;;;;;;;;;24.30;67.80;;;;;;5073099;28;19912;-85
2023/03/29 05:31:49;;;;;;;;;;;24.30;67.20;;;;;;5054180;28;19913;-85
2023/03/29 05:34:15;;;;;;;;;;;24.30;67.40;;;;;;5072970;28;19987;-85
2023/03/29 05:36:44;;;;;;;;;;;24.30;67.40;;;;;;5073413;28;19917;-86
2023/03/29 05:39:10;;;;;;;;;;;24.30;67.20;;;;;;5073260;28;19909;-85
2023/03/29 05:41:37;;;;;;;;;;;24.30;67.40;;;;;;5055143;28;20290;-85
2023/03/29 05:44:05;;;;;;;;;;;24.30;67.40;;;;;;5072843;28;19912;-86
2023/03/29 05:46:31;;;;;;;;;;;24.30;67.40;;;;;;5072966;28;19980;-86
2023/03/29 05:48:58;;;;;;;;;;;24.30;67.00;;;;;;5072906;28;19931;-87
2023/03/29 05:51:25;;;;;;;;;;;24.30;66.50;;;;;;5055149;28;20003;-85
2023/03/29 05:53:52;;;;;;;;;;;24.30;66.20;;;;;;5073149;28;19913;-85
2023/03/29 05:56:18;;;;;;;;;;;24.20;65.90;;;;;;5061352;28;19912;-85
2023/03/29 05:58:48;;;;;;;;;;;24.20;65.80;;;;;;5052563;28;19908;-86
2023/03/29 06:01:16;;;;;;;;;;;24.20;65.70;;;;;;5052188;28;19990;-86
2023/03/29 06:03:44;;;;;;;;;;;24.30;66.20;;;;;;5052698;28;19909;-86
2023/03/29 06:06:14;;;;;;;;;;;24.30;66.80;;;;;;5052677;28;19954;-84
2023/03/29 06:08:40;;;;;;;;;;;24.30;66.00;;;;;;5034909;28;19935;-85
2023/03/29 06:11:07;;;;;;;;;;;24.40;65.60;;;;;;5052357;28;20298;-85
2023/03/29 06:13:35;;;;;;;;;;;24.40;65.30;;;;;;5052020;28;19928;-86
2023/03/29 06:16:03;;;;;;;;;;;24.50;64.50;;;;;;5052398;28;19923;-85
2023/03/29 06:18:29;;;;;;;;;;;24.50;63.30;;;;;;5052616;28;20290;-82
2023/03/29 06:20:56;;;;;;;;;;;24.50;62.60;;;;;;5034739;28;19932;-86
2023/03/29 06:23:23;;;;;;;;;;;24.50;61.20;;;;;;5055668;28;20269;-86
2023/03/29 06:25:54;;;;;;;;;;;24.50;59.90;;;;;;5056636;28;19916;-85
2023/03/29 06:28:20;;;;;;;;;;;24.50;58.20;;;;;;5056761;28;19909;-83
2023/03/29 06:30:48;;;;;;;;;;;24.60;56.50;;;;;;5056810;28;20363;-83
2023/03/29 06:33:15;;;;;;;;;;;24.50;55.50;;;;;;5038929;28;19909;-82
2023/03/29 06:35:42;;;;;;;;;;;24.50;54.60;;;;;;5038672;28;20389;-84
2023/03/29 06:38:10;;;;;;;;;;;24.50;54.10;;;;;;5038865;28;20362;-84
2023/03/29 06:40:39;;;;;;;;;;;24.40;54.80;;;;;;5039136;28;19912;-83
2023/03/29 06:43:06;;;;;;;;;;;24.40;55.40;;;;;;5056068;28;19909;-85
2023/03/29 06:45:34;;;;;;;;;;;24.50;54.90;;;;;;5056481;28;19994;-83
2023/03/29 06:48:01;;;;;;;;;;;24.40;55.10;;;;;;5056068;28;20375;-83
2023/03/29 06:50:29;;;;;;;;;;;24.40;55.20;;;;;;5056626;28;20327;-83
2023/03/29 06:52:56;;;;;;;;;;;24.30;55.00;;;;;;5056978;28;19940;-85
2023/03/29 06:55:23;;;;;;;;;;;24.30;55.50;;;;;;5056182;28;19916;-85
2023/03/29 06:57:49;;;;;;;;;;;24.20;55.80;;;;;;5056008;28;19963;-82
2023/03/29 07:00:26;;;;;;;;;;;24.20;55.80;;;;;;5055842;28;19909;-85
2023/03/29 07:02:57;;;;;;;;;;;24.20;56.10;;;;;;5056123;28;19909;-84
2023/03/29 07:05:26;;;;;;;;;;;24.10;56.40;;;;;;5055781;28;19915;-86
2023/03/29 07:07:58;;;;;;;;;;;24.00;56.50;;;;;;5055930;28;20321;-83
2023/03/29 07:10:27;;;;;;;;;;;24.00;56.60;;;;;;5055853;28;19909;-84
2023/03/29 07:12:53;;;;;;;;;;;24.00;56.50;;;;;;5055728;28;19955;-84
2023/03/29 07:15:20;;;;;;;;;;;23.90;57.20;;;;;;5038378;28;19920;-85
2023/03/29 07:17:47;;;;;;;;;;;23.90;56.90;;;;;;5055718;28;19943;-85
2023/03/29 07:20:15;;;;;;;;;;;23.90;57.40;;;;;;5055744;28;19913;-85
2023/03/29 07:22:42;;;;;;;;;;;23.80;57.50;;;;;;5021512;28;20318;-84
2023/03/29 07:25:11;;;;;;;;;;;23.80;57.10;;;;;;5055678;28;19913;-85
2023/03/29 07:27:38;;;;;;;;;;;23.70;58.00;;;;;;5038413;28;19916;-85
2023/03/29 07:30:10;;;;;;;;;;;23.70;57.60;;;;;;5037946;28;19909;-85
2023/03/29 07:32:37;;;;;;;;;;;23.70;57.80;;;;;;5055234;28;19909;-84
2023/03/29 07:35:05;;;;;;;;;;;23.70;57.90;;;;;;5036849;28;19991;-83
2023/03/29 07:37:33;;;;;;;;;;;23.70;57.80;;;;;;5037625;28;19917;-81
2023/03/29 07:40:02;;;;;;;;;;;23.70;58.00;;;;;;5055435;28;20321;-84
2023/03/29 07:42:29;;;;;;;;;;;23.60;57.70;;;;;;5055638;28;20003;-84
2023/03/29 07:44:57;;;;;;;;;;;23.60;57.80;;;;;;5056198;28;19931;-84
2023/03/29 07:47:24;;;;;;;;;;;23.60;57.70;;;;;;5054786;28;19954;-84
2023/03/29 07:49:51;;;;;;;;;;;23.50;58.10;;;;;;5055179;28;19955;-85
2023/03/29 07:52:18;;;;;;;;;;;23.50;58.30;;;;;;5055283;28;19955;-84
2023/03/29 07:54:45;;;;;;;;;;;23.40;58.20;;;;;;5037644;28;19954;-84
2023/03/29 07:57:11;;;;;;;;;;;23.40;58.30;;;;;;5036964;28;19916;-85
2023/03/29 07:59:38;;;;;;;;;;;23.40;58.70;;;;;;5055155;28;19931;-86
2023/03/29 08:02:05;;;;;;;;;;;23.30;59.40;;;;;;5054930;28;20437;-85
2023/03/29 08:04:32;;;;;;;;;;;23.30;62.80;;;;;;5037435;28;19908;-85
2023/03/29 08:06:58;;;;;;;;;;;23.30;63.00;;;;;;5054983;28;20390;-85
2023/03/29 08:09:26;;;;;;;;;;;23.20;62.90;;;;;;5037263;28;19916;-85
2023/03/29 08:11:52;;;;;;;;;;;23.10;61.60;;;;;;5054588;28;19975;-85
2023/03/29 08:14:20;;;;;;;;;;;23.10;61.10;;;;;;5054576;28;19909;-85
2023/03/29 08:16:47;;;;;;;;;;;23.10;61.20;;;;;;5037248;28;19917;-84
2023/03/29 08:19:15;;;;;;;;;;;23.00;61.30;;;;;;5054826;28;20282;-85
2023/03/29 08:21:42;;;;;;;;;;;23.00;61.60;;;;;;5054669;28;20007;-84
2023/03/29 08:24:08;;;;;;;;;;;23.00;62.10;;;;;;5054173;28;20088;-85
2023/03/29 08:26:35;;;;;;;;;;;23.00;62.90;;;;;;5054676;28;19915;-85
2023/03/29 08:29:02;;;;;;;;;;;22.90;63.40;;;;;;5054780;28;19931;-85
2023/03/29 08:31:29;;;;;;;;;;;22.80;63.90;;;;;;5054694;28;19909;-85
2023/03/29 08:33:56;;;;;;;;;;;22.80;63.40;;;;;;5054465;28;20621;-85
2023/03/29 08:36:23;;;;;;;;;;;22.80;65.10;;;;;;5054303;28;19921;-85
2023/03/29 08:38:50;;;;;;;;;;;22.80;64.10;;;;;;5054391;28;19908;-86
2023/03/29 08:41:19;;;;;;;;;;;22.70;64.50;;;;;;5054442;28;19909;-85
2023/03/29 08:44:10;;;;;;;;;;;22.70;66.10;;;;;;5054628;28;20011;-85
2023/03/29 08:46:41;;;;;;;;;;;22.70;65.30;;;;;;5017671;28;20424;-85
2023/03/29 08:49:07;;;;;;;;;;;22.70;64.60;;;;;;5036467;28;19966;-83
2023/03/29 08:51:38;;;;;;;;;;;22.60;64.80;;;;;;5054068;28;19909;-84
2023/03/29 08:54:05;;;;;;;;;;;22.60;64.60;;;;;;5036414;28;19908;-84
2023/03/29 08:56:33;;;;;;;;;;;22.60;65.10;;;;;;5035978;28;19958;-84
2023/03/29 08:59:00;;;;;;;;;;;22.60;66.60;;;;;;5054062;28;19913;-84
2023/03/29 09:01:28;;;;;;;;;;;22.50;65.10;;;;;;5053984;28;19909;-84
2023/03/29 09:04:06;;;;;;;;;;;22.50;67.60;;;;;;5053678;28;19912;-85
2023/03/29 09:06:32;;;;;;;;;;;22.50;66.30;;;;;;5035884;28;19958;-85
2023/03/29 09:09:00;;;;;;;;;;;22.40;66.80;;;;;;5053502;28;19915;-85
2023/03/29 09:11:26;;;;;;;;;;;22.40;67.00;;;;;;5053489;28;20362;-85
2023/03/29 09:13:59;;;;;;;;;;;22.30;66.50;;;;;;5053526;28;19912;-85
2023/03/29 09:16:26;;;;;;;;;;;22.30;67.10;;;;;;5053133;28;19964;-85
2023/03/29 09:18:56;;;;;;;;;;;22.30;69.00;;;;;;5053215;28;19915;-85
2023/03/29 09:21:42;;;;;;;;;;;22.30;66.90;;;;;;5035811;28;20294;-85
2023/03/29 09:24:27;;;;;;;;;;;22.30;66.50;;;;;;5053517;28;19908;-85
2023/03/29 09:26:56;;;;;;;;;;;22.30;67.60;;;;;;5053121;28;20050;-85
2023/03/29 09:29:22;;;;;;;;;;;22.30;67.40;;;;;;5035669;28;19964;-85
2023/03/29 09:31:50;;;;;;;;;;;22.30;67.50;;;;;;5052987;28;20358;-85
2023/03/29 09:34:23;;;;;;;;;;;22.30;67.30;;;;;;5053512;28;20421;-85
2023/03/29 09:36:51;;;;;;;;;;;22.30;66.00;;;;;;5036846;28;19921;-84
2023/03/29 09:39:19;;;;;;;;;;;22.30;67.00;;;;;;5054075;28;20378;-85
2023/03/29 09:42:00;;;;;;;;;;;22.30;66.00;;;;;;5054455;28;20414;-85
2023/03/29 09:44:29;;;;;;;;;;;22.30;66.30;;;;;;5054503;28;19952;-85
2023/03/29 09:46:57;;;;;;;;;;;22.30;67.20;;;;;;5035851;28;19912;-85
2023/03/29 09:49:26;;;;;;;;;;;22.20;66.50;;;;;;5036620;28;19921;-85
2023/03/29 09:51:53;;;;;;;;;;;22.20;67.40;;;;;;5035735;28;19909;-85
2023/03/29 09:54:19;;;;;;;;;;;22.20;66.00;;;;;;5035707;28;19962;-85
2023/03/29 09:56:46;;;;;;;;;;;22.20;66.80;;;;;;5035398;28;19924;-85
2023/03/29 09:59:13;;;;;;;;;;;22.20;66.70;;;;;;5053449;28;19967;-85
2023/03/29 10:01:40;;;;;;;;;;;22.20;67.10;;;;;;5053756;28;19928;-85
2023/03/29 10:04:10;;;;;;;;;;;22.20;68.20;;;;;;5054202;28;19908;-86
2023/03/29 10:06:42;;;;;;;;;;;22.10;68.60;;;;;;5035983;28;19920;-85
2023/03/29 10:09:14;;;;;;;;;;;22.10;66.90;;;;;;5036568;28;19909;-85
2023/03/29 10:11:42;;;;;;;;;;;22.10;66.30;;;;;;5036203;28;19909;-84
2023/03/29 10:14:12;;;;;;;;;;;22.10;65.60;;;;;;5035867;28;19915;-84
2023/03/29 10:16:40;;;;;;;;;;;22.00;65.60;;;;;;5035566;28;19924;-85
2023/03/29 10:19:20;;;;;;;;;;;22.00;64.90;;;;;;5052736;28;19919;-85
2023/03/29 10:21:48;;;;;;;;;;;22.10;66.00;;;;;;5053190;28;19916;-84
2023/03/29 10:24:17;;;;;;;;;;;22.00;64.60;;;;;;5053205;28;19913;-86
2023/03/29 10:26:44;;;;;;;;;;;22.10;64.80;;;;;;5053062;28;19948;-85
2023/03/29 10:29:12;;;;;;;;;;;22.10;64.00;;;;;;5052845;28;19924;-87
2023/03/29 10:31:41;;;;;;;;;;;22.10;64.00;;;;;;5035212;28;20325;-84
2023/03/29 10:34:08;;;;;;;;;;;22.10;62.70;;;;;;5052721;28;19944;-86
2023/03/29 10:36:35;;;;;;;;;;;22.00;63.20;;;;;;5034721;28;19916;-86
2023/03/29 10:39:02;;;;;;;;;;;22.10;62.80;;;;;;5052512;28;20433;-86
2023/03/29 10:41:29;;;;;;;;;;;22.10;62.70;;;;;;5035008;28;19952;-85
2023/03/29 10:43:56;;;;;;;;;;;22.10;62.20;;;;;;5034810;28;20053;-86
2023/03/29 10:46:26;;;;;;;;;;;22.10;61.40;;;;;;5052405;28;19909;-87
2023/03/29 10:49:03;;;;;;;;;;;22.10;61.70;;;;;;5052480;28;19921;-87
2023/03/29 10:51:29;;;;;;;;;;;22.10;61.20;;;;;;5035546;28;20011;-87
2023/03/29 10:53:57;;;;;;;;;;;22.10;61.70;;;;;;5052785;28;19919;-86
2023/03/29 10:56:27;;;;;;;;;;;22.00;61.10;;;;;;5052368;28;20019;-87
2023/03/29 10:58:57;;;;;;;;;;;22.10;60.50;;;;;;5052287;28;19995;-86
2023/03/29 11:01:28;;;;;;;;;;;22.00;60.40;;;;;;5052504;28;19909;-87
2023/03/29 11:04:01;;;;;;;;;;;22.00;61.70;;;;;;5034602;28;20306;-87
2023/03/29 11:06:31;;;;;;;;;;;22.00;61.30;;;;;;5052660;28;19908;-87
2023/03/29 11:08:58;;;;;;;;;;;22.00;61.50;;;;;;5034853;28;19909;-88
2023/03/29 11:11:42;;;;;;;;;;;21.90;62.10;;;;;;5056081;28;20347;-86
2023/03/29 11:14:29;;;;;;;;;;;21.90;62.30;;;;;;5055831;28;20660;-86
2023/03/29 11:17:28;;;;;;;;;;;21.80;61.30;;;;;;5055551;28;20397;-87
2023/03/29 11:19:55;;;;;;;;;;;21.80;62.60;;;;;;5012180;28;19917;-86
2023/03/29 11:22:31;;;;;;;;;;;21.80;62.60;;;;;;5039064;28;19964;-87
2023/03/29 11:25:02;;;;;;;;;;;21.80;61.70;;;;;;5055735;28;20022;-85
2023/03/29 11:27:35;;;;;;;;;;;21.80;62.00;;;;;;5037997;28;20006;-86
2023/03/29 11:30:20;;;;;;;;;;;21.80;62.70;;;;;;5038267;28;20363;-86
2023/03/29 11:33:10;;;;;;;;;;;21.80;61.50;;;;;;5055612;28;20011;-86
2023/03/29 11:35:41;;;;;;;;;;;21.70;61.30;;;;;;5045204;28;19915;-86
2023/03/29 11:38:12;;;;;;;;;;;21.80;61.60;;;;;;5055391;28;19921;-86
2023/03/29 11:40:39;;;;;;;;;;;21.80;61.90;;;;;;5037792;28;19963;-85
2023/03/29 11:43:11;;;;;;;;;;;21.70;61.80;;;;;;5055544;28;19924;-86
2023/03/29 11:45:39;;;;;;;;;;;21.80;61.20;;;;;;5055545;28;19915;-86
2023/03/29 11:48:06;;;;;;;;;;;21.70;61.10;;;;;;5037577;28;20000;-85
2023/03/29 11:50:53;;;;;;;;;;;21.70;62.50;;;;;;5037659;28;19928;-86
2023/03/29 11:53:24;;;;;;;;;;;21.70;61.60;;;;;;5041719;28;19909;-85
2023/03/29 11:55:52;;;;;;;;;;;21.70;61.00;;;;;;5037087;28;19955;-86
2023/03/29 11:58:22;;;;;;;;;;;21.70;61.90;;;;;;5055611;28;19913;-85
2023/03/29 12:01:10;;;;;;;;;;;21.70;62.40;;;;;;5037473;28;19916;-86
2023/03/29 12:03:38;;;;;;;;;;;21.70;62.20;;;;;;5037659;28;19909;-86
2023/03/29 12:06:11;;;;;;;;;;;21.60;62.20;;;;;;5037989;28;19909;-88
2023/03/29 12:08:39;;;;;;;;;;;21.60;62.00;;;;;;5055836;28;19916;-88
2023/03/29 12:11:23;;;;;;;;;;;21.60;60.90;;;;;;5037648;28;20287;-88
2023/03/29 12:13:53;;;;;;;;;;;21.60;61.40;;;;;;5054965;28;19913;-88
2023/03/29 12:16:45;;;;;;;;;;;21.60;61.60;;;;;;5037375;28;20342;-90
2023/03/29 12:19:15;;;;;;;;;;;21.50;62.20;;;;;;5052482;28;19908;-89
2023/03/29 12:21:42;;;;;;;;;;;21.50;62.40;;;;;;5057035;28;19971;-89
2023/03/29 12:24:11;;;;;;;;;;;21.40;63.60;;;;;;5057356;28;19908;-89
2023/03/29 12:26:45;;;;;;;;;;;21.40;63.40;;;;;;5057211;28;19995;-88
2023/03/29 12:29:27;;;;;;;;;;;21.30;64.60;;;;;;5075097;28;19909;-88
2023/03/29 12:32:14;;;;;;;;;;;21.30;63.50;;;;;;5075589;28;19916;-89
2023/03/29 12:34:56;;;;;;;;;;;21.30;63.70;;;;;;5075570;28;19913;-88
2023/03/29 12:37:32;;;;;;;;;;;21.30;64.00;;;;;;5075237;28;20404;-88
2023/03/29 12:40:03;;;;;;;;;;;21.20;64.00;;;;;;5074964;28;20344;-88
2023/03/29 12:42:30;;;;;;;;;;;21.20;64.10;;;;;;5057198;28;20385;-88
2023/03/29 12:44:57;;;;;;;;;;;21.20;64.40;;;;;;5073195;28;19920;-89
2023/03/29 12:47:25;;;;;;;;;;;21.10;65.70;;;;;;5074618;28;19920;-89
2023/03/29 12:49:55;;;;;;;;;;;21.00;65.80;;;;;;5074554;28;20415;-89
2023/03/29 12:52:26;;;;;;;;;;;21.00;66.10;;;;;;5074372;28;20294;-88
2023/03/29 12:54:56;;;;;;;;;;;21.00;66.00;;;;;;5074154;28;19913;-89
2023/03/29 12:57:27;;;;;;;;;;;20.90;66.50;;;;;;5074327;28;19924;-89
2023/03/29 12:59:54;;;;;;;;;;;20.80;66.20;;;;;;5074454;28;19908;-89
2023/03/29 13:02:21;;;;;;;;;;;20.80;66.10;;;;;;5074420;28;19908;-89
2023/03/29 13:04:51;;;;;;;;;;;20.80;66.90;;;;;;5074249;28;19916;-89
2023/03/29 13:07:27;;;;;;;;;;;20.80;67.30;;;;;;5074167;28;20045;-88
2023/03/29 13:09:57;;;;;;;;;;;20.80;67.40;;;;;;5074674;28;20182;-88
2023/03/29 13:12:43;;;;;;;;;;;20.80;66.90;;;;;;5074219;28;19935;-89
2023/03/29 13:15:16;;;;;;;;;;;20.80;67.20;;;;;;5057156;28;19916;-88
2023/03/29 13:17:55;;;;;;;;;;;20.70;67.80;;;;;;5074429;28;19916;-88
2023/03/29 13:20:21;;;;;;;;;;;20.70;67.40;;;;;;5074118;28;19915;-88
2023/03/29 13:22:51;;;;;;;;;;;20.70;67.20;;;;;;5073776;28;20366;-87
2023/03/29 13:25:21;;;;;;;;;;;20.70;66.60;;;;;;5073839;28;19909;-88
2023/03/29 13:28:03;;;;;;;;;;;20.70;67.10;;;;;;5073904;28;20293;-88
2023/03/29 13:30:32;;;;;;;;;;;20.70;66.70;;;;;;5073588;28;19915;-89
2023/03/29 13:32:59;;;;;;;;;;;20.70;66.60;;;;;;5054986;28;20333;-89
2023/03/29 13:35:52;;;;;;;;;;;20.70;66.20;;;;;;5054631;28;19919;-87
2023/03/29 13:38:20;;;;;;;;;;;20.70;66.40;;;;;;5069620;28;19932;-88
2023/03/29 13:40:57;;;;;;;;;;;20.60;67.00;;;;;;5055431;28;19913;-88
2023/03/29 13:43:36;;;;;;;;;;;20.60;67.10;;;;;;5064129;28;19920;-88
2023/03/29 13:46:04;;;;;;;;;;;20.60;67.10;;;;;;5050691;28;19904;-88
2023/03/29 13:48:37;;;;;;;;;;;20.60;66.50;;;;;;5073372;28;19985;-88
2023/03/29 13:51:13;;;;;;;;;;;20.60;67.50;;;;;;5073332;28;19909;-87
2023/03/29 13:53:40;;;;;;;;;;;20.50;68.20;;;;;;5055389;28;19916;-88
2023/03/29 13:56:07;;;;;;;;;;;20.40;68.80;;;;;;5073480;28;20011;-88
2023/03/29 13:58:43;;;;;;;;;;;20.30;69.30;;;;;;5055590;28;19995;-87
2023/03/29 14:01:13;;;;;;;;;;;20.30;68.70;;;;;;5073493;28;19909;-88
2023/03/29 14:03:43;;;;;;;;;;;20.30;69.10;;;;;;5073550;28;19909;-87
2023/03/29 14:06:12;;;;;;;;;;;20.30;68.80;;;;;;5056379;28;20012;-88
2023/03/29 14:08:39;;;;;;;;;;;20.30;68.80;;;;;;5050380;28;19913;-88
2023/03/29 14:11:06;;;;;;;;;;;20.30;68.90;;;;;;5035753;28;20378;-88
2023/03/29 14:13:33;;;;;;;;;;;20.20;69.60;;;;;;5035896;28;20332;-88
2023/03/29 14:16:03;;;;;;;;;;;20.20;70.40;;;;;;5053340;28;19924;-88
2023/03/29 14:18:34;;;;;;;;;;;20.20;70.00;;;;;;5036333;28;19920;-87
2023/03/29 14:21:00;;;;;;;;;;;20.20;70.80;;;;;;5053532;28;19908;-88
2023/03/29 14:23:29;;;;;;;;;;;20.00;70.20;;;;;;5035818;28;19909;-88
2023/03/29 14:26:04;;;;;;;;;;;19.90;70.80;;;;;;5036211;28;19979;-89
2023/03/29 14:28:31;;;;;;;;;;;19.80;70.70;;;;;;5035513;28;19916;-89
2023/03/29 14:30:58;;;;;;;;;;;19.80;71.20;;;;;;5035846;28;19950;-87